Time;durP1;ratioP1;P1;durP2;ratioP2;P2;SDS_P1;SDS_P2;PMS_P1;PMS_P2;Temp;Humidity;BMP_temperature;BMP_pressure;BME280_temperature;BME280_humidity;BME280_pressure;Samples;Min_cycle;Max_cycle;Signal;HPM_P1;HPM_P2
2022/04/26 03:36:07;;;;;;;28.90;12.80;;;;;;;6.75;94.14;100120.57;105528;1274;25566;-58
2022/04/26 03:38:41;;;;;;;28.80;14.60;;;;;;;6.75;94.16;100124.54;105964;1273;24265;-59
2022/04/26 03:41:13;;;;;;;26.10;12.50;;;;;;;6.75;94.21;100127.26;105896;1273;24267;-60
2022/04/26 03:43:44;;;;;;;27.80;12.70;;;;;;;6.74;94.18;100123.17;105652;1273;26625;-59
2022/04/26 03:46:16;;;;;;;29.60;13.70;;;;;;;6.73;94.21;100127.30;105774;1273;24308;-59
2022/04/26 03:48:48;;;;;;;29.60;13.10;;;;;;;6.73;94.19;100134.76;105896;1273;22560;-59
2022/04/26 03:51:20;;;;;;;28.40;13.60;;;;;;;6.70;94.15;100135.27;106197;1273;24321;-58
2022/04/26 03:53:55;;;;;;;32.30;14.10;;;;;;;6.68;94.26;100141.40;105900;1273;22595;-57
2022/04/26 03:56:27;;;;;;;25.40;12.30;;;;;;;6.66;94.19;100144.27;105938;1273;22519;-58
2022/04/26 03:58:58;;;;;;;31.70;13.10;;;;;;;6.65;94.21;100140.79;105975;1273;24612;-60
2022/04/26 04:01:30;;;;;;;26.30;13.20;;;;;;;6.67;94.32;100141.05;105673;1273;22551;-61
2022/04/26 04:04:01;;;;;;;30.80;14.10;;;;;;;6.68;94.24;100141.33;105641;1274;22547;-60
2022/04/26 04:06:33;;;;;;;23.50;11.00;;;;;;;6.69;94.21;100146.67;105846;1274;24273;-60
2022/04/26 04:09:04;;;;;;;27.00;12.10;;;;;;;6.68;94.28;100148.61;105663;1274;24200;-59
2022/04/26 04:11:36;;;;;;;24.20;11.50;;;;;;;6.66;94.30;100156.67;105789;1274;22533;-59
2022/04/26 04:14:07;;;;;;;23.50;11.60;;;;;;;6.65;94.23;100156.23;105851;1275;22554;-58
2022/04/26 04:16:40;;;;;;;26.80;12.70;;;;;;;6.67;94.37;100157.85;105732;1275;23957;-59
2022/04/26 04:19:21;;;;;;;26.50;12.40;;;;;;;6.69;94.34;100160.39;105886;1274;22586;-58
2022/04/26 04:21:53;;;;;;;29.40;12.50;;;;;;;6.70;94.39;100163.04;105616;1275;24462;-58
2022/04/26 04:24:24;;;;;;;30.20;14.90;;;;;;;6.71;94.35;100160.67;105793;1274;22566;-57
2022/04/26 04:26:56;;;;;;;27.10;11.80;;;;;;;6.72;94.36;100168.33;105679;1273;22605;-59
2022/04/26 04:29:27;;;;;;;26.60;12.10;;;;;;;6.71;94.33;100178.52;105736;1274;22566;-57
2022/04/26 04:31:59;;;;;;;28.60;12.50;;;;;;;6.70;94.35;100182.29;105683;1274;25440;-59
2022/04/26 04:34:31;;;;;;;26.80;12.40;;;;;;;6.69;94.40;100183.51;105716;1274;25306;-59
2022/04/26 04:37:02;;;;;;;24.00;11.20;;;;;;;6.69;94.47;100187.97;105920;1274;22573;-58
2022/04/26 04:39:34;;;;;;;27.90;12.40;;;;;;;6.69;94.41;100192.06;105584;1274;24383;-59
2022/04/26 04:42:06;;;;;;;27.10;12.00;;;;;;;6.69;94.72;100198.02;105770;1274;24404;-59
2022/04/26 04:44:40;;;;;;;32.50;13.70;;;;;;;6.68;94.64;100201.63;105757;1274;108277;-58
2022/04/26 04:47:12;;;;;;;27.90;11.60;;;;;;;6.69;94.49;100196.45;105942;1274;24428;-57
2022/04/26 04:49:46;;;;;;;29.60;13.10;;;;;;;6.71;94.47;100196.77;106087;1274;25386;-58
2022/04/26 04:52:18;;;;;;;27.50;12.40;;;;;;;6.72;94.40;100200.14;105963;1274;22550;-58
2022/04/26 04:54:50;;;;;;;28.40;11.70;;;;;;;6.75;94.46;100201.61;106116;1274;24037;-58
2022/04/26 04:57:21;;;;;;;26.00;11.30;;;;;;;6.77;94.29;100203.18;106028;1274;25374;-58
2022/04/26 04:59:53;;;;;;;30.20;11.20;;;;;;;6.79;94.42;100213.55;105765;1274;22585;-60
2022/04/26 05:02:25;;;;;;;27.50;11.70;;;;;;;6.81;94.48;100216.98;105625;1275;25504;-57
2022/04/26 05:04:56;;;;;;;29.30;12.20;;;;;;;6.84;94.47;100216.33;105797;1274;24130;-58
2022/04/26 05:07:29;;;;;;;24.60;11.30;;;;;;;6.86;94.30;100217.21;105805;1274;22557;-58
2022/04/26 05:10:01;;;;;;;30.30;12.60;;;;;;;6.87;94.25;100222.95;105876;1274;22640;-59
2022/04/26 05:12:33;;;;;;;30.60;13.80;;;;;;;6.89;94.33;100229.52;106163;1274;24339;-56
2022/04/26 05:15:06;;;;;;;29.60;13.60;;;;;;;6.92;94.46;100230.13;105824;1274;25433;-57
2022/04/26 05:17:38;;;;;;;27.70;13.30;;;;;;;6.95;94.48;100228.81;106223;1274;22546;-57
2022/04/26 05:20:11;;;;;;;30.30;13.30;;;;;;;6.98;94.57;100231.79;106284;1274;22656;-58
2022/04/26 05:25:37;;;;;;;26.90;12.80;;;;;;;7.05;94.27;100239.14;105723;1274;24259;-57
2022/04/26 05:28:09;;;;;;;30.40;12.90;;;;;;;7.08;94.19;100240.70;105891;1274;24284;-58
2022/04/26 05:30:40;;;;;;;27.60;12.60;;;;;;;7.09;94.28;100241.57;105958;1273;22536;-56
2022/04/26 05:33:12;;;;;;;29.20;13.30;;;;;;;7.13;94.51;100242.94;106557;1274;22551;-57
2022/04/26 05:35:49;;;;;;;28.80;13.50;;;;;;;7.15;94.16;100241.65;105914;1273;25610;-58
2022/04/26 05:38:21;;;;;;;30.40;13.20;;;;;;;7.18;94.00;100247.59;105885;1273;22766;-59
2022/04/26 05:40:52;;;;;;;32.40;15.30;;;;;;;7.19;93.81;100242.85;105873;1274;22585;-59
2022/04/26 05:43:23;;;;;;;31.10;13.90;;;;;;;7.21;93.77;100242.80;105777;1274;23494;-59
2022/04/26 05:45:55;;;;;;;30.20;13.20;;;;;;;7.24;93.70;100241.02;105742;1274;22532;-59
2022/04/26 05:48:28;;;;;;;27.00;12.50;;;;;;;7.26;93.74;100244.88;105896;1274;22547;-57
2022/04/26 05:51:00;;;;;;;31.00;14.60;;;;;;;7.26;93.41;100250.34;105982;1274;22733;-58
2022/04/26 05:53:32;;;;;;;33.90;13.60;;;;;;;7.28;93.50;100255.52;106133;1275;25467;-59
2022/04/26 05:56:05;;;;;;;30.70;14.10;;;;;;;7.30;93.35;100252.73;105854;1274;22576;-57
2022/04/26 05:58:37;;;;;;;32.10;12.70;;;;;;;7.32;93.26;100252.54;105864;1274;24264;-58
2022/04/26 06:01:08;;;;;;;33.10;13.30;;;;;;;7.33;93.27;100254.85;105864;1274;24238;-58
2022/04/26 06:03:41;;;;;;;30.20;13.80;;;;;;;7.34;92.65;100253.30;106980;1274;22551;-59
2022/04/26 06:06:12;;;;;;;33.50;14.00;;;;;;;7.34;92.90;100251.55;106047;1274;25437;-58
2022/04/26 06:08:44;;;;;;;29.90;12.70;;;;;;;7.39;93.14;100253.45;106050;1274;25278;-58
2022/04/26 06:11:19;;;;;;;29.00;13.80;;;;;;;7.42;92.85;100255.86;105982;1273;24287;-57
2022/04/26 06:13:51;;;;;;;25.90;13.00;;;;;;;7.43;92.83;100256.21;106094;1273;25541;-57
2022/04/26 06:16:22;;;;;;;29.60;13.40;;;;;;;7.45;92.64;100258.70;106256;1274;24272;-59
2022/04/26 06:18:54;;;;;;;30.20;13.20;;;;;;;7.46;92.40;100253.80;106318;1274;22553;-59
2022/04/26 06:21:25;;;;;;;26.90;12.60;;;;;;;7.49;92.67;100259.88;106002;1274;24720;-58
2022/04/26 06:23:57;;;;;;;29.20;14.70;;;;;;;7.50;92.51;100257.81;106178;1273;22559;-58
2022/04/26 06:26:28;;;;;;;30.30;14.90;;;;;;;7.56;92.88;100260.11;106900;1274;25342;-56
2022/04/26 06:29:00;;;;;;;30.50;14.30;;;;;;;7.62;92.70;100263.05;106032;1274;25521;-56
2022/04/26 06:31:31;;;;;;;32.50;15.30;;;;;;;7.66;92.36;100260.36;105840;1274;23316;-59
2022/04/26 06:34:09;;;;;;;28.10;14.00;;;;;;;7.68;92.15;100262.66;105989;1273;22550;-55
2022/04/26 06:36:41;;;;;;;31.70;15.40;;;;;;;7.72;91.99;100263.19;106008;1274;23927;-58
2022/04/26 06:39:13;;;;;;;35.50;15.50;;;;;;;7.75;91.90;100262.91;106038;1274;22565;-57
2022/04/26 06:41:45;;;;;;;30.90;14.80;;;;;;;7.79;92.05;100262.35;106047;1274;24311;-57
2022/04/26 06:44:17;;;;;;;30.70;16.00;;;;;;;7.86;92.12;100260.08;105977;1272;25316;-55
2022/04/26 06:46:49;;;;;;;31.10;15.50;;;;;;;7.93;92.13;100259.46;105953;1275;24191;-58
2022/04/26 06:49:21;;;;;;;31.80;15.60;;;;;;;7.98;91.81;100258.77;105983;1274;25322;-58
2022/04/26 06:51:53;;;;;;;32.20;15.10;;;;;;;8.01;91.59;100264.05;105973;1274;22693;-58
2022/04/26 06:54:25;;;;;;;34.50;16.70;;;;;;;8.06;91.70;100268.45;105935;1274;22531;-58
2022/04/26 06:56:56;;;;;;;32.00;15.80;;;;;;;8.08;91.17;100271.61;105844;1274;25217;-57
2022/04/26 06:59:28;;;;;;;34.10;16.10;;;;;;;8.11;91.17;100271.42;106139;1273;22710;-59
2022/04/26 07:02:00;;;;;;;33.80;15.90;;;;;;;8.15;91.28;100273.79;106108;1274;25386;-59
2022/04/26 07:04:32;;;;;;;40.10;16.80;;;;;;;8.20;91.09;100276.27;105969;1272;25413;-59
2022/04/26 07:07:05;;;;;;;31.40;13.80;;;;;;;8.24;90.47;100276.91;105921;1274;22603;-56
2022/04/26 07:09:37;;;;;;;32.20;14.80;;;;;;;8.28;90.76;100279.73;105883;1274;22540;-57
2022/04/26 07:12:11;;;;;;;31.00;14.40;;;;;;;8.34;90.70;100283.32;105821;1274;29465;-59
2022/04/26 07:14:43;;;;;;;32.10;14.20;;;;;;;8.36;89.24;100286.13;105823;1274;22542;-57
2022/04/26 07:17:17;;;;;;;30.30;14.50;;;;;;;8.35;89.17;100283.44;105802;1274;22766;-58
2022/04/26 07:19:48;;;;;;;34.00;14.80;;;;;;;8.40;89.87;100278.15;106027;1274;22784;-58
2022/04/26 07:22:20;;;;;;;28.90;12.80;;;;;;;8.50;90.20;100280.27;105930;1274;22642;-59
2022/04/26 07:24:51;;;;;;;29.60;13.50;;;;;;;8.58;89.50;100282.14;106031;1273;23420;-59
2022/04/26 07:27:23;;;;;;;27.50;11.90;;;;;;;8.63;89.07;100287.09;106106;1274;22541;-58
2022/04/26 07:29:55;;;;;;;27.40;12.30;;;;;;;8.66;88.10;100287.48;105888;1273;22560;-58
2022/04/26 07:35:14;;;;;;;30.70;13.10;;;;;;;8.75;88.19;100297.91;105781;1274;25261;-58
2022/04/26 07:37:46;;;;;;;25.20;10.90;;;;;;;8.77;87.91;100305.03;105845;1274;24512;-58
2022/04/26 07:40:20;;;;;;;23.20;9.30;;;;;;;8.79;87.83;100302.82;105869;1274;25324;-57
2022/04/26 07:42:52;;;;;;;22.70;10.00;;;;;;;8.86;88.81;100301.04;105674;1274;22570;-58
2022/04/26 07:45:24;;;;;;;28.70;10.30;;;;;;;8.98;88.81;100298.36;105851;1274;24367;-58
2022/04/26 07:48:00;;;;;;;20.40;8.50;;;;;;;9.10;88.33;100298.02;105883;1273;22726;-59
2022/04/26 07:50:33;;;;;;;21.80;9.30;;;;;;;9.14;87.41;100299.23;105677;1274;22599;-56
2022/04/26 07:53:09;;;;;;;20.80;7.20;;;;;;;9.21;87.50;100304.91;105912;1273;22575;-56
2022/04/26 07:55:42;;;;;;;18.00;7.90;;;;;;;9.25;86.75;100307.81;105864;1274;26528;-58
2022/04/26 07:58:13;;;;;;;18.20;7.70;;;;;;;9.30;87.23;100309.15;105884;1273;22539;-58
2022/04/26 08:00:45;;;;;;;19.80;8.20;;;;;;;9.38;87.28;100311.42;105878;1273;22540;-59
2022/04/26 08:03:20;;;;;;;21.70;7.80;;;;;;;9.43;86.38;100319.15;105777;1274;24234;-58
2022/04/26 08:05:53;;;;;;;22.10;7.60;;;;;;;9.46;86.34;100319.69;105802;1273;22562;-57
2022/04/26 08:08:25;;;;;;;19.20;6.50;;;;;;;9.55;86.27;100320.55;105812;1273;25322;-59
2022/04/26 08:10:56;;;;;;;18.40;6.40;;;;;;;9.61;85.82;100322.00;105800;1273;24455;-58
2022/04/26 08:13:28;;;;;;;18.10;6.30;;;;;;;9.68;85.84;100326.21;105811;1273;24373;-57
2022/04/26 08:15:59;;;;;;;17.10;5.70;;;;;;;9.77;85.71;100327.29;105717;1273;22493;-57
2022/04/26 08:18:31;;;;;;;17.90;6.30;;;;;;;9.90;85.90;100331.47;105888;1273;22557;-57
2022/04/26 08:21:03;;;;;;;15.90;6.20;;;;;;;10.00;85.30;100334.45;105884;1273;25399;-58
2022/04/26 08:23:34;;;;;;;14.10;5.30;;;;;;;10.09;84.79;100338.41;105918;1273;25569;-56
2022/04/26 08:29:06;;;;;;;14.00;4.20;;;;;;;10.24;84.28;100338.46;105469;1277;22548;-58
2022/04/26 08:31:38;;;;;;;15.90;6.00;;;;;;;10.31;84.18;100342.67;105630;1277;22673;-60
2022/04/26 08:34:12;;;;;;;15.70;5.70;;;;;;;10.34;83.18;100340.52;105703;1277;22561;-59
2022/04/26 08:36:46;;;;;;;17.20;6.20;;;;;;;10.36;82.77;100344.51;105573;1278;22551;-58
2022/04/26 08:39:20;;;;;;;15.80;5.50;;;;;;;10.36;83.03;100340.40;105716;1277;22529;-59
2022/04/26 08:41:59;;;;;;;15.50;5.50;;;;;;;10.42;83.27;100341.95;105573;1278;22560;-57
2022/04/26 08:44:31;;;;;;;15.40;6.20;;;;;;;10.41;82.08;100346.64;105432;1278;22724;-59
2022/04/26 08:52:51;;;;;;;14.20;4.40;;;;;;;10.36;81.43;100348.16;105460;1277;24252;-58
2022/04/26 08:55:23;;;;;;;14.30;5.40;;;;;;;10.30;81.99;100348.39;105592;1277;23319;-57
2022/04/26 08:57:54;;;;;;;15.90;5.80;;;;;;;10.34;82.05;100357.35;105539;1277;25376;-60
2022/04/26 09:00:26;;;;;;;14.10;5.10;;;;;;;10.32;80.26;100357.52;105599;1277;22573;-57
2022/04/26 09:03:07;;;;;;;11.50;3.50;;;;;;;10.28;80.38;100356.30;105520;1277;25305;-59
2022/04/26 09:05:39;;;;;;;11.30;3.80;;;;;;;10.23;79.97;100360.70;105850;1273;25382;-58
2022/04/26 09:08:24;;;;;;;10.30;3.90;;;;;;;10.20;80.55;100365.22;105874;1273;23995;-58
2022/04/26 09:10:55;;;;;;;11.90;3.80;;;;;;;10.22;80.01;100367.13;105770;1273;25422;-59
2022/04/26 09:13:28;;;;;;;14.70;4.30;;;;;;;10.19;79.88;100366.15;105897;1273;22537;-58
2022/04/26 09:16:02;;;;;;;12.60;4.40;;;;;;;10.21;80.76;100364.21;105906;1273;24241;-57
2022/04/26 09:18:33;;;;;;;13.80;4.80;;;;;;;10.26;80.21;100364.44;105837;1274;22587;-57
2022/04/26 09:21:12;;;;;;;10.70;3.50;;;;;;;10.37;80.87;100367.48;105939;1273;25656;-58
2022/04/26 09:23:44;;;;;;;12.40;4.30;;;;;;;10.51;80.29;100367.87;106203;1273;24227;-59
2022/04/26 09:26:17;;;;;;;12.40;4.20;;;;;;;10.63;80.25;100363.30;106216;1273;23010;-59
2022/04/26 09:28:51;;;;;;;12.30;4.10;;;;;;;10.76;79.95;100361.98;105903;1273;25235;-58
2022/04/26 09:31:24;;;;;;;13.40;4.70;;;;;;;10.91;80.01;100365.17;105867;1273;22544;-59
2022/04/26 09:33:59;;;;;;;14.40;5.40;;;;;;;11.05;79.47;100368.64;105844;1273;22545;-59
2022/04/26 09:36:35;;;;;;;10.90;4.30;;;;;;;11.15;79.13;100369.44;105855;1273;22557;-59
2022/04/26 09:39:09;;;;;;;12.50;4.80;;;;;;;11.19;78.82;100369.67;106052;1273;22884;-59
2022/04/26 09:41:49;;;;;;;10.80;3.40;;;;;;;11.23;78.99;100371.79;106043;1273;22557;-59
2022/04/26 09:44:31;;;;;;;13.30;3.60;;;;;;;11.25;78.02;100373.97;105896;1274;22569;-58
2022/04/26 09:47:03;;;;;;;9.80;4.20;;;;;;;11.24;77.06;100374.95;105806;1274;25469;-58
2022/04/26 09:49:40;;;;;;;11.30;4.00;;;;;;;11.26;77.00;100371.54;105910;1273;25282;-59
2022/04/26 09:52:13;;;;;;;15.60;3.70;;;;;;;11.35;77.64;100367.38;105957;1273;26434;-59
2022/04/26 09:54:45;;;;;;;13.60;4.10;;;;;;;11.46;77.37;100371.53;105828;1273;25264;-59
2022/04/26 09:57:24;;;;;;;9.20;3.40;;;;;;;11.54;76.78;100370.49;105920;1273;24323;-58
2022/04/26 09:59:57;;;;;;;12.20;3.80;;;;;;;11.65;77.12;100371.30;105815;1273;22718;-59
2022/04/26 10:02:31;;;;;;;10.40;3.20;;;;;;;11.74;76.16;100370.30;105906;1273;22556;-58
2022/04/26 10:05:06;;;;;;;14.90;4.10;;;;;;;11.77;75.76;100370.71;105832;1273;22562;-60
2022/04/26 10:07:42;;;;;;;14.20;4.60;;;;;;;11.84;76.83;100369.60;105993;1273;24322;-56
2022/04/26 10:10:14;;;;;;;12.20;4.70;;;;;;;11.92;76.69;100368.40;105983;1273;22570;-57
2022/04/26 10:13:31;;;;;;;12.30;4.20;;;;;;;11.97;75.82;100367.66;105985;1273;22698;-60
2022/04/26 10:15:40;;;;;;;13.40;3.80;;;;;;;11.97;74.43;100368.07;105890;1273;23461;-59
2022/04/26 10:18:29;;;;;;;11.60;3.60;;;;;;;11.92;75.34;100367.23;105885;1273;22563;-58
2022/04/26 10:21:02;;;;;;;10.10;3.40;;;;;;;11.93;74.79;100362.67;105921;1273;24394;-59
2022/04/26 10:24:10;;;;;;;12.10;2.80;;;;;;;11.96;73.35;100364.09;106043;1273;22737;-59
2022/04/26 10:26:43;;;;;;;13.60;3.90;;;;;;;11.92;73.13;100363.46;106089;1273;22584;-58
2022/04/26 10:29:26;;;;;;;9.90;2.80;;;;;;;11.91;73.43;100362.49;105844;1273;24315;-59
2022/04/26 10:32:07;;;;;;;10.90;2.50;;;;;;;11.96;73.85;100360.73;105706;1273;24271;-59
2022/04/26 10:34:40;;;;;;;10.40;3.20;;;;;;;12.02;71.89;100357.73;105750;1273;24332;-58
2022/04/26 10:37:33;;;;;;;7.50;2.80;;;;;;;12.03;72.72;100355.55;105946;1273;24261;-59
2022/04/26 10:40:08;;;;;;;9.30;3.10;;;;;;;12.08;72.37;100354.30;105932;1273;24249;-61
2022/04/26 10:42:40;;;;;;;11.40;3.60;;;;;;;12.10;73.16;100352.50;105798;1273;22647;-57
2022/04/26 10:45:10;;;;;;;11.40;3.60;;;;;;;12.16;72.56;100353.29;101928;1273;5509171;-59
2022/04/26 10:47:42;;;;;;;9.90;3.30;;;;;;;12.20;72.71;100352.59;105697;1273;25608;-59
2022/04/26 10:50:31;;;;;;;10.90;3.30;;;;;;;12.25;71.09;100350.38;105848;1273;23173;-60
2022/04/26 10:53:02;;;;;;;7.50;2.30;;;;;;;12.26;71.22;100348.70;105756;1273;24533;-56
2022/04/26 10:55:34;;;;;;;7.70;2.70;;;;;;;12.32;70.04;100348.48;105875;1273;25871;-61
2022/04/26 10:58:15;;;;;;;9.60;3.10;;;;;;;12.30;69.21;100351.35;105792;1273;23071;-59
2022/04/26 11:00:47;;;;;;;7.30;2.50;;;;;;;12.33;70.12;100351.70;105897;1273;22532;-58
2022/04/26 11:03:19;;;;;;;10.20;2.50;;;;;;;12.36;69.68;100353.55;105927;1273;22548;-59
2022/04/26 11:05:54;;;;;;;10.10;2.70;;;;;;;12.38;69.12;100352.39;105852;1273;22579;-57
2022/04/26 11:08:31;;;;;;;9.30;2.50;;;;;;;12.43;69.61;100356.77;105839;1273;24353;-59
2022/04/26 11:11:12;;;;;;;10.50;3.40;;;;;;;12.47;69.97;100357.18;105935;1274;22540;-57
2022/04/26 11:13:44;;;;;;;9.90;2.80;;;;;;;12.55;69.98;100356.89;106100;1274;22567;-60
2022/04/26 11:16:16;;;;;;;7.60;2.90;;;;;;;12.58;69.26;100358.60;105780;1274;25332;-57
2022/04/26 11:18:48;;;;;;;11.20;3.40;;;;;;;12.56;68.30;100359.55;105810;1274;22551;-59
2022/04/26 11:21:20;;;;;;;10.50;3.50;;;;;;;12.49;69.17;100360.22;105800;1274;22547;-57
2022/04/26 11:29:51;;;;;;;7.40;2.20;;;;;;;12.50;69.24;100366.33;105680;1274;25988;-59
2022/04/26 11:32:38;;;;;;;8.30;2.40;;;;;;;12.52;68.83;100365.81;105638;1274;24322;-58
2022/04/26 11:35:10;;;;;;;10.20;2.20;;;;;;;12.54;68.22;100370.77;105864;1274;23052;-59
2022/04/26 11:37:53;;;;;;;8.40;2.40;;;;;;;12.56;68.23;100374.23;105813;1274;25280;-59
2022/04/26 11:40:30;;;;;;;9.50;2.90;;;;;;;12.62;67.89;100372.61;105678;1274;22684;-57
2022/04/26 11:43:09;;;;;;;9.50;2.80;;;;;;;12.62;67.32;100370.71;105680;1274;22637;-56
2022/04/26 11:45:44;;;;;;;11.20;3.10;;;;;;;12.67;68.05;100373.95;105707;1274;22563;-58
2022/04/26 11:48:18;;;;;;;10.50;2.90;;;;;;;12.76;68.06;100375.17;106084;1274;22780;-59
2022/04/26 11:50:53;;;;;;;8.60;3.20;;;;;;;12.82;66.82;100373.61;105849;1275;22557;-59
2022/04/26 11:53:26;;;;;;;8.50;2.70;;;;;;;12.79;65.97;100377.25;105728;1274;25335;-57
2022/04/26 11:56:00;;;;;;;8.90;2.00;;;;;;;12.79;66.34;100375.21;105835;1274;26721;-57
2022/04/26 11:58:37;;;;;;;8.00;2.10;;;;;;;12.82;65.89;100372.59;105691;1274;25481;-59
2022/04/26 12:01:11;;;;;;;6.40;1.80;;;;;;;12.86;65.83;100370.30;105720;1274;25115;-57
2022/04/26 12:03:49;;;;;;;8.10;2.50;;;;;;;12.90;65.01;100372.55;105741;1274;23183;-58
2022/04/26 12:06:31;;;;;;;8.80;2.00;;;;;;;12.93;64.93;100369.42;105694;1274;24619;-56
2022/04/26 12:09:06;;;;;;;7.20;1.90;;;;;;;12.95;63.99;100366.75;105866;1274;24223;-59
2022/04/26 12:11:38;;;;;;;9.40;2.50;;;;;;;12.93;64.49;100365.50;105968;1273;22620;-56
2022/04/26 12:14:12;;;;;;;7.00;2.10;;;;;;;12.95;64.74;100360.23;106013;1273;22544;-59
2022/04/26 12:16:47;;;;;;;9.20;2.20;;;;;;;12.96;64.17;100362.77;105903;1273;25387;-56
2022/04/26 12:19:18;;;;;;;9.00;2.40;;;;;;;12.91;63.56;100362.33;105859;1273;24270;-60
2022/04/26 12:21:51;;;;;;;8.70;2.20;;;;;;;12.87;63.89;100360.98;105697;1273;22697;-59
2022/04/26 12:24:26;;;;;;;10.80;3.70;;;;;;;12.83;63.95;100358.80;105748;1273;25415;-58
2022/04/26 12:26:59;;;;;;;9.30;2.50;;;;;;;12.80;63.91;100360.70;105939;1273;22623;-57
2022/04/26 12:29:32;;;;;;;8.40;2.70;;;;;;;12.77;63.74;100361.38;106204;1273;22537;-58
2022/04/26 12:32:08;;;;;;;9.70;2.60;;;;;;;12.74;64.14;100365.42;105765;1273;22570;-57
2022/04/26 12:34:49;;;;;;;8.40;2.70;;;;;;;12.72;64.43;100361.83;105831;1273;26628;-58
2022/04/26 12:37:22;;;;;;;8.50;2.50;;;;;;;12.73;64.33;100363.83;105762;1273;25530;-57
2022/04/26 12:39:55;;;;;;;9.60;2.60;;;;;;;12.78;64.71;100362.20;105657;1273;24231;-58
2022/04/26 12:42:36;;;;;;;6.90;2.30;;;;;;;12.81;64.10;100362.48;105916;1273;24390;-56
2022/04/26 12:45:21;;;;;;;7.60;2.40;;;;;;;12.78;63.62;100361.35;105832;1273;22531;-58
2022/04/26 12:51:17;;;;;;;8.60;2.20;;;;;;;12.75;63.49;100355.65;105885;1273;22540;-59
2022/04/26 12:53:50;;;;;;;10.10;2.60;;;;;;;12.75;63.15;100351.23;105931;1273;22556;-59
2022/04/26 12:56:25;;;;;;;9.80;2.80;;;;;;;12.78;63.40;100355.79;105932;1273;26622;-59
2022/04/26 12:58:57;;;;;;;8.50;2.00;;;;;;;12.82;63.51;100352.42;105872;1273;25265;-58
2022/04/26 13:01:30;;;;;;;8.00;1.80;;;;;;;12.85;63.33;100351.50;105820;1274;22563;-57
2022/04/26 13:04:01;;;;;;;9.40;2.40;;;;;;;12.89;62.95;100347.88;105932;1273;22538;-60
2022/04/26 13:06:33;;;;;;;7.40;1.80;;;;;;;12.94;63.33;100347.92;105890;1273;25372;-58
2022/04/26 13:09:04;;;;;;;11.40;2.70;;;;;;;12.95;61.57;100348.96;105921;1273;22624;-60
2022/04/26 13:11:36;;;;;;;8.00;2.40;;;;;;;12.95;62.31;100353.75;105837;1273;22573;-58
2022/04/26 13:14:08;;;;;;;9.00;2.20;;;;;;;12.94;62.45;100350.27;105736;1273;22536;-57
2022/04/26 13:16:39;;;;;;;9.30;2.70;;;;;;;12.99;63.22;100348.74;105711;1273;22554;-58
2022/04/26 13:19:11;;;;;;;7.10;2.10;;;;;;;13.06;63.42;100347.81;105788;1274;22542;-55
2022/04/26 13:21:43;;;;;;;8.30;2.50;;;;;;;13.10;63.01;100345.22;105785;1273;25284;-56
2022/04/26 13:24:15;;;;;;;9.10;2.60;;;;;;;13.12;62.80;100346.42;105840;1273;22537;-59
2022/04/26 13:26:47;;;;;;;8.80;2.80;;;;;;;13.16;62.75;100345.89;105696;1274;22544;-56
2022/04/26 13:29:18;;;;;;;8.60;2.60;;;;;;;13.18;62.76;100348.62;105786;1273;22745;-59
2022/04/26 13:31:50;;;;;;;9.80;2.60;;;;;;;13.17;62.59;100345.25;105928;1273;25528;-58
2022/04/26 13:34:22;;;;;;;10.50;3.00;;;;;;;13.16;62.11;100344.72;105845;1273;22577;-58
2022/04/26 13:36:54;;;;;;;7.90;2.50;;;;;;;13.14;62.28;100342.10;105699;1273;24021;-56
2022/04/26 13:39:26;;;;;;;8.10;2.50;;;;;;;13.16;61.73;100343.55;105724;1273;24260;-57
2022/04/26 13:41:57;;;;;;;9.80;2.60;;;;;;;13.15;61.64;100344.41;105796;1273;26754;-58
2022/04/26 13:44:29;;;;;;;7.10;2.40;;;;;;;13.18;61.80;100349.73;105914;1273;24249;-57
2022/04/26 13:47:02;;;;;;;11.80;2.60;;;;;;;13.20;61.63;100352.30;105793;1273;22562;-58
2022/04/26 13:49:35;;;;;;;9.70;3.40;;;;;;;13.21;61.33;100349.81;105719;1273;22559;-56
2022/04/26 13:52:09;;;;;;;8.80;3.20;;;;;;;13.21;61.51;100344.77;105783;1273;22600;-58
2022/04/26 13:54:42;;;;;;;11.10;3.20;;;;;;;13.25;61.77;100347.27;105756;1273;22614;-58
2022/04/26 13:57:16;;;;;;;7.50;2.60;;;;;;;13.28;61.65;100350.77;105689;1273;22595;-58
2022/04/26 13:59:48;;;;;;;7.00;2.40;;;;;;;13.28;61.23;100348.58;106055;1273;22563;-57
2022/04/26 14:02:21;;;;;;;7.80;2.00;;;;;;;13.26;60.80;100347.98;105552;1274;26608;-58
2022/04/26 14:04:53;;;;;;;9.10;2.50;;;;;;;13.26;60.69;100347.59;105676;1274;24361;-59
2022/04/26 14:07:26;;;;;;;12.20;2.80;;;;;;;13.26;60.40;100349.10;105621;1274;22534;-59
2022/04/26 14:09:59;;;;;;;7.90;2.10;;;;;;;13.23;60.09;100349.99;105753;1274;22534;-58
2022/04/26 14:12:35;;;;;;;8.90;2.80;;;;;;;13.20;60.33;100350.58;105973;1274;25540;-59
2022/04/26 14:23:42;;;;;;;9.20;2.50;;;;;;;13.09;60.17;100352.40;105868;1273;25467;-56
2022/04/26 14:26:15;;;;;;;9.50;2.40;;;;;;;13.08;60.79;100356.72;105714;1273;25333;-59
2022/04/26 14:28:48;;;;;;;10.90;3.10;;;;;;;13.08;60.82;100354.17;105533;1274;25382;-57
2022/04/26 14:31:21;;;;;;;9.20;2.50;;;;;;;13.08;60.84;100356.41;105717;1274;23100;-59
2022/04/26 14:33:52;;;;;;;11.30;2.80;;;;;;;13.07;60.53;100356.71;105646;1273;22639;-59
2022/04/26 14:36:24;;;;;;;10.80;2.90;;;;;;;13.04;60.39;100358.29;105551;1274;25389;-58
2022/04/26 14:38:58;;;;;;;11.20;2.70;;;;;;;13.01;60.23;100355.29;105611;1273;23804;-58
2022/04/26 14:41:30;;;;;;;12.90;2.40;;;;;;;12.97;60.57;100357.70;105945;1274;22851;-58
2022/04/26 14:44:01;;;;;;;7.90;2.20;;;;;;;12.94;60.48;100353.89;105752;1274;25566;-57
2022/04/26 14:46:35;;;;;;;8.70;2.10;;;;;;;12.91;60.68;100353.15;105562;1273;25452;-58
2022/04/26 14:49:07;;;;;;;7.30;1.90;;;;;;;12.89;60.41;100352.25;105548;1274;24342;-58
2022/04/26 14:51:39;;;;;;;8.30;2.20;;;;;;;12.85;60.73;100349.09;105850;1273;25328;-59
2022/04/26 14:54:10;;;;;;;7.90;2.80;;;;;;;12.84;60.89;100347.61;109509;1273;23338;-58
2022/04/26 14:56:42;;;;;;;9.60;2.50;;;;;;;12.82;60.40;100345.20;106393;1273;22556;-58
2022/04/26 14:59:13;;;;;;;9.10;2.60;;;;;;;12.79;60.56;100343.27;105906;1273;22546;-58
2022/04/26 15:01:48;;;;;;;8.20;2.50;;;;;;;12.77;60.93;100349.86;105672;1273;22577;-57
2022/04/26 15:04:21;;;;;;;13.30;3.90;;;;;;;12.76;61.07;100348.79;105946;1273;25285;-56
2022/04/26 15:06:52;;;;;;;16.30;3.90;;;;;;;12.76;61.17;100349.05;105937;1273;24260;-59
2022/04/26 15:17:54;;;;;;;8.50;2.80;;;;;;;12.70;61.37;100348.61;105691;1273;22483;-59
2022/04/26 15:20:25;;;;;;;11.30;2.60;;;;;;;12.67;61.58;100347.05;105765;1273;22562;-57
2022/04/26 15:22:57;;;;;;;10.70;3.30;;;;;;;12.66;61.40;100346.23;105897;1273;22700;-56
2022/04/26 15:25:28;;;;;;;9.60;3.10;;;;;;;12.65;61.67;100348.71;105727;1273;25499;-55
2022/04/26 15:28:00;;;;;;;15.90;4.80;;;;;;;12.64;61.74;100349.97;105925;1273;22534;-58
2022/04/26 15:30:31;;;;;;;13.90;3.90;;;;;;;12.63;62.06;100354.44;105718;1273;22548;-59
2022/04/26 15:33:02;;;;;;;15.10;4.10;;;;;;;12.61;62.13;100352.39;105796;1273;22546;-58
2022/04/26 15:35:34;;;;;;;10.80;3.50;;;;;;;12.60;62.07;100351.59;105677;1273;23215;-57
2022/04/26 15:38:07;;;;;;;17.10;4.10;;;;;;;12.59;62.30;100352.30;105986;1273;22557;-58
2022/04/26 15:40:39;;;;;;;18.10;6.50;;;;;;;12.58;62.60;100353.56;105824;1273;25422;-59
2022/04/26 15:43:11;;;;;;;22.50;8.00;;;;;;;12.56;62.88;100354.61;105988;1273;22570;-59
2022/04/26 15:45:43;;;;;;;21.00;8.50;;;;;;;12.55;62.80;100354.79;105907;1273;22620;-59
2022/04/26 15:48:15;;;;;;;21.60;8.70;;;;;;;12.52;62.71;100360.46;105928;1273;24391;-58
2022/04/26 15:50:49;;;;;;;23.40;10.50;;;;;;;12.51;63.06;100356.06;105887;1273;25259;-58
2022/04/26 15:53:20;;;;;;;21.40;11.20;;;;;;;12.49;63.49;100359.66;106201;1273;22556;-58
2022/04/26 15:55:52;;;;;;;20.80;8.80;;;;;;;12.48;63.28;100358.22;105778;1273;25498;-57